KEED/EED METAR and TAF weather

Enter ICAO airport designator
Station Type Date Time Source
KEED METAR 2018/10/21 05:56 UTC NOAA

KEED 210556Z AUTO 34009KT 10SM SCT090 BKN110 28/05 A2990 RMK AO2 SLP096 T02780050 10322 20272 58002 $


Station Type Date Time Source
KEED Decoded METAR 2018/10/21 05:56 UTC NOAA

NEEDLES AIRPORT, CA, United States (KEED) 34-46N 114-37W
Oct 21, 2018 - 01:56 AM EDT / 2018.10.21 0556 UTC
Wind: from the NNW (340 degrees) at 10 MPH (9 KT):0
Visibility: 10 mile(s):0
Sky conditions: mostly cloudy
Temperature: 82.0 F (27.8 C)
Dew Point: 41.0 F (5.0 C)
Relative Humidity: 23%
Pressure (altimeter): 29.9 in. Hg (1012 hPa)
Pressure tendency: 0.01 inches (0.2 hPa) lower than three hours ago
ob: KEED 210556Z AUTO 34009KT 10SM SCT090 BKN110 28/05 A2990 RMK AO2 SLP096 T02780050 10322 20272 58002
cycle: 6

Station Type Date Time Source
KEED TAF 2018/10/21 06:22 UTC NOAA

TAF KEED 210520Z 2106/2206 32006KT P6SM BKN100
FM210800 32006KT P6SM VCSH BKN080
FM211900 15008KT P6SM VCSH BKN080
FM220300 VRB05KT P6SM SCT080


Example: see airport list